createdAt,value
2019-05-28T00:00:37.148Z,11.97
2019-05-28T00:04:42.483Z,16.37
2019-05-28T00:08:47.480Z,13.90
2019-05-28T00:12:52.462Z,16.00
2019-05-28T00:16:57.439Z,12.97
2019-05-28T00:21:02.787Z,12.80
2019-05-28T00:25:20.557Z,14.37
2019-05-28T00:29:25.505Z,18.97
2019-05-28T00:33:30.443Z,14.00
2019-05-28T00:37:35.458Z,15.87
2019-05-28T00:41:40.452Z,12.60
2019-05-28T00:50:14.876Z,15.07
2019-05-28T00:54:20.099Z,14.00
2019-05-28T00:58:25.666Z,17.07
2019-05-28T01:02:30.763Z,16.10
2019-05-28T01:06:35.798Z,13.20
2019-05-28T01:10:40.762Z,16.17
2019-05-28T01:14:45.758Z,14.60
2019-05-28T01:18:50.814Z,15.30
2019-05-28T03:17:03.315Z,12.70
2019-05-28T03:21:16.327Z,13.13
2019-05-28T03:25:22.862Z,11.50
2019-05-28T03:29:27.948Z,13.60
2019-05-28T03:33:32.955Z,16.00
2019-05-28T03:37:39.850Z,15.23
2019-05-28T03:41:44.783Z,13.97
2019-05-28T03:45:50.094Z,10.37
2019-05-28T03:49:55.200Z,14.17
2019-05-28T03:54:00.087Z,15.17
2019-05-28T03:58:05.678Z,11.73
2019-05-28T04:02:23.073Z,11.50
2019-05-28T04:06:17.236Z,11.37
2019-05-28T04:10:22.229Z,14.23
2019-05-28T04:14:27.168Z,12.70
2019-05-28T04:18:32.112Z,11.53
2019-05-28T04:22:37.249Z,12.10
2019-05-28T04:26:42.198Z,10.30
2019-05-28T04:30:47.072Z,11.17
2019-05-28T04:34:52.028Z,14.10
2019-05-28T04:38:56.943Z,11.20
2019-05-28T04:43:02.280Z,10.20
2019-05-28T04:47:08.910Z,11.30
2019-05-28T04:51:14.048Z,11.53
2019-05-28T04:55:19.037Z,8.30
2019-05-28T04:59:34.131Z,8.03
2019-05-28T05:08:12.683Z,9.60
2019-05-28T05:13:02.126Z,10.70
2019-05-28T05:17:45.577Z,14.90
2019-05-28T05:21:51.959Z,10.30
2019-05-28T05:25:57.188Z,10.83
2019-05-28T05:30:02.569Z,10.43
2019-05-28T05:34:08.896Z,11.50
2019-05-28T05:38:13.937Z,9.93
2019-05-28T05:42:19.104Z,9.70
2019-05-28T05:46:24.233Z,10.83
2019-05-28T05:50:29.460Z,11.37
2019-05-28T05:54:34.363Z,12.47
2019-05-28T05:58:39.258Z,11.93
2019-05-28T06:02:44.614Z,9.47
2019-05-28T06:06:49.711Z,11.13
2019-05-28T06:10:54.702Z,11.50
2019-05-28T06:14:59.745Z,13.07
2019-05-28T06:19:05.306Z,10.63
2019-05-28T06:23:10.439Z,12.73
2019-05-28T06:27:15.439Z,9.03
2019-05-28T06:31:20.369Z,11.67
2019-05-28T06:35:25.332Z,9.40
2019-05-28T06:39:30.317Z,8.77
2019-05-28T06:43:35.462Z,11.37
2019-05-28T06:47:44.968Z,12.40
2019-05-28T06:52:05.145Z,8.87
2019-05-28T07:01:16.555Z,9.97
2019-05-28T07:05:21.661Z,7.00
2019-05-28T07:09:26.819Z,11.33
2019-05-28T07:13:32.051Z,8.10
2019-05-28T07:17:37.631Z,10.90
2019-05-28T07:21:42.949Z,9.90
2019-05-28T07:26:06.772Z,8.53
2019-05-28T07:30:30.081Z,11.90
2019-05-28T07:34:36.451Z,9.53
2019-05-28T07:38:45.591Z,8.70
2019-05-28T07:42:50.880Z,9.53
2019-05-28T07:46:56.136Z,9.57
2019-05-28T07:51:01.643Z,9.50
2019-05-28T07:55:07.595Z,10.60
2019-05-28T07:59:12.662Z,12.50
2019-05-28T08:03:17.717Z,9.87
2019-05-28T08:07:22.712Z,11.47
2019-05-28T08:11:38.285Z,10.67
2019-05-28T08:15:43.305Z,12.27
2019-05-28T08:19:55.776Z,10.10
2019-05-28T08:24:00.865Z,13.47
2019-05-28T08:28:59.693Z,10.33
2019-05-28T08:33:05.338Z,9.17
2019-05-28T08:37:10.281Z,7.80
2019-05-28T08:41:15.450Z,9.57
2019-05-28T08:45:20.811Z,9.67
2019-05-28T08:49:26.405Z,7.30
2019-05-28T08:53:31.278Z,8.43
2019-05-28T08:57:36.641Z,8.63
2019-05-28T09:01:41.684Z,6.17
2019-05-28T09:05:46.759Z,5.87
2019-05-28T09:09:51.715Z,5.20
2019-05-28T09:13:56.637Z,6.03
2019-05-28T09:18:01.950Z,5.77
2019-05-28T09:22:07.688Z,4.73
2019-05-28T09:26:13.079Z,6.63
2019-05-28T09:30:18.833Z,6.23
2019-05-28T09:34:23.710Z,5.80
2019-05-28T09:50:34.525Z,4.20
2019-05-28T09:59:43.863Z,4.70
2019-05-28T10:03:48.954Z,4.60
2019-05-28T10:07:54.536Z,4.23
2019-05-28T10:11:59.533Z,4.17
2019-05-28T10:16:05.852Z,6.40
2019-05-28T10:20:11.747Z,4.00
2019-05-28T10:24:21.022Z,3.43
2019-05-28T10:28:26.147Z,1.80
2019-05-28T10:32:31.087Z,2.40
2019-05-28T10:36:38.036Z,3.43
2019-05-28T10:40:42.895Z,2.13
2019-05-28T10:44:48.132Z,2.47
2019-05-28T10:48:53.205Z,3.00
2019-05-28T10:52:58.142Z,2.33
2019-05-28T10:57:03.112Z,2.07
2019-05-28T11:01:08.289Z,2.00
2019-05-28T11:05:14.281Z,2.03
2019-05-28T11:09:19.530Z,2.27
2019-05-28T11:13:24.681Z,1.93
2019-05-28T11:17:29.646Z,1.60
2019-05-28T11:21:34.682Z,3.10
2019-05-28T11:25:39.653Z,2.37
2019-05-28T11:29:44.731Z,1.93
2019-05-28T11:33:50.871Z,2.97
2019-05-28T11:37:55.897Z,2.13
2019-05-28T11:42:00.898Z,3.07
2019-05-28T11:46:06.666Z,2.13
2019-05-28T11:50:17.080Z,2.30
2019-05-28T11:54:22.233Z,2.97
2019-05-28T11:58:27.219Z,4.50
2019-05-28T12:02:32.161Z,2.40
2019-05-28T12:06:38.334Z,6.27
2019-05-28T12:10:43.573Z,2.27
2019-05-28T12:14:48.544Z,2.93
2019-05-28T12:18:53.632Z,2.03
2019-05-28T12:23:10.445Z,1.70
2019-05-28T12:27:05.320Z,2.10
2019-05-28T12:31:10.269Z,2.30
2019-05-28T12:39:47.363Z,1.60
2019-05-28T12:49:02.164Z,2.27
2019-05-28T12:53:08.138Z,1.70
2019-05-28T12:57:13.101Z,2.90
2019-05-28T13:01:18.142Z,2.30
2019-05-28T13:05:25.525Z,2.27
2019-05-28T13:09:38.751Z,2.87
2019-05-28T13:13:43.898Z,2.20
2019-05-28T13:17:49.160Z,1.70
2019-05-28T13:21:54.062Z,2.80
2019-05-28T13:25:58.978Z,1.00
2019-05-28T13:30:04.620Z,1.10
2019-05-28T13:34:09.653Z,1.53
2019-05-28T13:38:26.381Z,1.47
2019-05-28T13:42:21.391Z,1.10
2019-05-28T13:46:26.478Z,1.33
2019-05-28T13:50:33.082Z,0.80
2019-05-28T13:54:38.024Z,2.50
2019-05-28T13:58:43.066Z,0.73
2019-05-28T14:02:48.236Z,0.60
2019-05-28T14:06:53.137Z,1.13
2019-05-28T14:10:58.050Z,1.00
2019-05-28T14:15:03.478Z,0.90
2019-05-28T14:19:09.051Z,0.98
2019-05-28T14:23:13.922Z,1.00
2019-05-28T14:27:18.942Z,0.80
2019-05-28T14:31:23.897Z,1.23
2019-05-28T14:35:29.414Z,0.63
2019-05-28T14:39:41.064Z,1.03
2019-05-28T14:43:40.884Z,1.23
2019-05-28T14:47:45.976Z,0.53
2019-05-28T14:51:50.916Z,0.80
2019-05-28T14:55:56.194Z,0.80
2019-05-28T15:00:01.148Z,0.77
2019-05-28T15:04:06.706Z,1.30
2019-05-28T15:08:11.799Z,1.17
2019-05-28T15:12:16.711Z,1.00
2019-05-28T15:16:21.792Z,4.53
2019-05-28T15:20:26.890Z,1.17
2019-05-28T15:24:31.859Z,1.87
2019-05-28T15:28:36.978Z,1.63
2019-05-28T15:32:42.007Z,1.20
2019-05-28T15:36:47.020Z,0.90
2019-05-28T15:40:51.950Z,2.07
2019-05-28T15:44:56.915Z,2.23
2019-05-28T15:49:01.941Z,1.90
2019-05-28T15:53:07.286Z,1.40
2019-05-28T15:57:12.187Z,1.80
2019-05-28T16:01:17.336Z,6.30
2019-05-28T16:05:24.089Z,1.83
2019-05-28T16:09:28.990Z,3.27
2019-05-28T16:13:34.038Z,2.90
2019-05-28T16:17:39.048Z,1.70
2019-05-28T16:21:43.941Z,1.37
2019-05-28T16:25:48.903Z,1.90
2019-05-28T16:29:53.836Z,1.43
2019-05-28T16:33:58.799Z,1.87
2019-05-28T16:38:03.754Z,1.50
2019-05-28T16:42:08.727Z,1.43
2019-05-28T16:46:16.047Z,1.60
2019-05-28T16:50:21.419Z,1.17
2019-05-28T16:54:26.417Z,1.67
2019-05-28T16:58:31.563Z,1.10
2019-05-28T17:02:37.056Z,1.37
2019-05-28T17:06:42.036Z,1.30
2019-05-28T17:10:46.958Z,1.70
2019-05-28T17:15:00.248Z,1.77
2019-05-28T17:19:06.215Z,2.30
2019-05-28T17:23:11.520Z,1.70
2019-05-28T17:27:16.831Z,0.80
2019-05-28T17:31:21.945Z,1.53
2019-05-28T17:35:26.990Z,3.33
2019-05-28T17:39:32.086Z,1.80
2019-05-28T17:43:37.123Z,1.37
2019-05-28T17:47:45.300Z,1.40
2019-05-28T17:51:50.313Z,1.33
2019-05-28T17:55:58.083Z,1.43
2019-05-28T18:00:03.107Z,3.17
2019-05-28T18:04:08.927Z,1.77
2019-05-28T18:08:14.017Z,1.43
2019-05-28T18:12:19.039Z,1.07
2019-05-28T18:16:27.746Z,1.60
2019-05-28T18:20:32.786Z,10.90
2019-05-28T18:24:37.704Z,1.87
2019-05-28T18:28:43.002Z,1.77
2019-05-28T18:32:47.992Z,1.53
2019-05-28T18:36:52.917Z,1.50
2019-05-28T18:40:58.052Z,1.70
2019-05-28T18:45:03.431Z,1.17
2019-05-28T18:49:11.827Z,2.60
2019-05-28T18:53:16.719Z,1.10
2019-05-28T18:57:21.644Z,2.03
2019-05-28T19:01:26.627Z,2.83
2019-05-28T19:05:31.594Z,4.27
2019-05-28T19:09:39.042Z,3.60
2019-05-28T19:13:48.106Z,2.03
2019-05-28T19:17:54.524Z,4.27
2019-05-28T19:21:59.872Z,2.70
2019-05-28T19:26:08.267Z,3.40
2019-05-28T19:34:54.650Z,2.70
2019-05-28T19:39:00.117Z,3.40
2019-05-28T19:43:05.954Z,4.33
2019-05-28T19:47:11.762Z,4.00
2019-05-28T19:51:16.813Z,3.77
2019-05-28T19:55:21.969Z,7.43
2019-05-28T19:59:27.305Z,2.60
2019-05-28T20:03:33.112Z,4.47
2019-05-28T20:07:38.425Z,4.57
2019-05-28T20:11:43.935Z,3.50
2019-05-28T20:15:48.915Z,4.20
2019-05-28T20:19:54.521Z,2.60
2019-05-28T20:23:59.867Z,2.67
2019-05-28T20:28:05.231Z,2.20
2019-05-28T20:32:12.258Z,2.10
2019-05-28T20:36:18.708Z,2.67
2019-05-28T20:40:25.281Z,1.77
2019-05-28T20:44:31.591Z,8.00
2019-05-28T20:48:38.134Z,1.53
2019-05-28T20:52:43.263Z,3.23
2019-05-28T20:56:50.372Z,2.50
2019-05-28T21:00:55.663Z,1.70
2019-05-28T21:05:00.623Z,0.90
2019-05-28T21:09:07.852Z,1.20
2019-05-28T21:13:12.838Z,1.20
2019-05-28T21:17:17.916Z,2.40
2019-05-28T21:21:22.827Z,2.80
2019-05-28T21:25:27.700Z,1.00
2019-05-28T21:29:32.704Z,1.60
2019-05-28T21:33:37.682Z,2.50
2019-05-28T21:37:44.127Z,2.60
2019-05-28T21:41:49.145Z,1.00
2019-05-28T21:45:54.138Z,1.33
2019-05-28T21:49:59.578Z,3.40
2019-05-28T21:54:06.131Z,0.90
2019-05-28T21:58:11.195Z,0.70
2019-05-28T22:02:16.114Z,0.67
2019-05-28T22:06:21.023Z,1.60
2019-05-28T22:10:25.975Z,0.57
2019-05-28T22:14:30.904Z,1.03
2019-05-28T22:18:35.842Z,1.10
2019-05-28T22:22:40.771Z,1.30
2019-05-28T22:26:45.690Z,1.27
2019-05-28T22:30:50.762Z,1.60
2019-05-28T22:34:55.856Z,1.20
2019-05-28T22:39:08.908Z,1.83
2019-05-28T22:43:14.272Z,1.57
2019-05-28T22:47:19.218Z,2.13
2019-05-28T22:51:24.718Z,0.70
2019-05-28T22:55:30.091Z,0.70
2019-05-28T22:59:36.449Z,0.70
2019-05-28T23:03:41.561Z,0.80
2019-05-28T23:07:46.456Z,1.00
2019-05-28T23:11:51.657Z,1.33
2019-05-28T23:15:56.561Z,0.93
2019-05-28T23:20:02.874Z,1.73
2019-05-28T23:24:09.334Z,1.10
2019-05-28T23:28:14.325Z,1.63
2019-05-28T23:32:19.222Z,0.90
2019-05-28T23:36:24.111Z,1.27
2019-05-28T23:40:29.018Z,1.47
2019-05-28T23:44:34.022Z,3.10
2019-05-28T23:48:39.028Z,1.90
2019-05-28T23:52:44.010Z,1.73
2019-05-28T23:56:49.117Z,2.63
